Paauhau, Hawaii
Current Conditions -  °F | °C
As of 10:56 PM on Monday 20 Oct 2014 (Local Time) from PHSF Reporting Station
Clear Clear  
Wind Chill: 59°   Ceiling: Unl
Heat Index: 59°   Visibility: 10mi
Dew Point: 24°   Wind: 14mph
Humidity: 27%   Direction: 130°SE
Pressure: 30.37"   Gusts: 22mph
Location:  20.08°N, 155.44°W
Report Text: PHSF 210856Z AUTO 13012G19KT 10SM CLR 15/M04 A3037 RMK AO2 SLP154 T01481042 51007 $
Loading
Personal Weather Stations






























Interactive Weather Map
Tropical Storm Tracking
New forecast layout! Learn more

10-Day Weather Forecast

Advertisements
Track Severe Weather on mobile